Time;durP1;ratioP1;P1;durP2;ratioP2;P2;SDS_P1;SDS_P2;PMS_P1;PMS_P2;Temp;Humidity;BMP_temperature;BMP_pressure;BME280_temperature;BME280_humidity;BME280_pressure;Samples;Min_cycle;Max_cycle;Signal;HPM_P1;HPM_P2
2022/05/05 00:01:37;;;;;;;23.15;14.90;;;12.20;90.60;;;;;;1918249;75;21261;-58
2022/05/05 00:04:03;;;;;;;23.02;16.25;;;12.20;90.60;;;;;;1916627;75;21210;-58
2022/05/05 00:06:32;;;;;;;26.55;14.85;;;12.20;90.60;;;;;;1917964;75;21120;-57
2022/05/05 00:09:01;;;;;;;22.93;14.87;;;12.20;90.70;;;;;;1918093;75;20997;-57
2022/05/05 00:14:34;;;;;;;25.88;14.50;;;12.30;90.70;;;;;;1918006;75;21119;-58
2022/05/05 00:17:06;;;;;;;25.00;14.35;;;12.20;90.80;;;;;;1917116;75;21139;-57
2022/05/05 00:19:36;;;;;;;21.37;13.75;;;12.30;91.00;;;;;;1918109;74;21061;-58
2022/05/05 00:22:06;;;;;;;21.75;13.75;;;12.30;90.80;;;;;;1918041;74;21120;-57
2022/05/05 00:24:37;;;;;;;20.68;14.80;;;12.30;90.80;;;;;;1917936;75;21001;-58
2022/05/05 00:27:07;;;;;;;21.12;14.20;;;12.20;90.80;;;;;;1917986;74;21124;-57
2022/05/05 00:29:37;;;;;;;26.02;15.05;;;12.30;90.80;;;;;;1917956;75;21096;-57
2022/05/05 00:32:07;;;;;;;23.05;14.93;;;12.20;90.80;;;;;;1918108;75;21017;-58
2022/05/05 00:34:35;;;;;;;24.05;14.20;;;12.20;90.70;;;;;;1918109;74;21060;-58
2022/05/05 00:37:05;;;;;;;19.52;13.68;;;12.20;90.70;;;;;;1918160;75;21012;-58
2022/05/05 00:39:35;;;;;;;20.88;14.10;;;12.30;90.80;;;;;;1914723;73;21034;-57
2022/05/05 00:42:06;;;;;;;19.85;13.38;;;12.30;90.80;;;;;;1914117;75;21006;-57
2022/05/05 00:44:35;;;;;;;24.43;13.40;;;12.30;90.80;;;;;;1914111;75;21156;-57
2022/05/05 00:47:05;;;;;;;17.67;12.25;;;12.30;91.10;;;;;;1914154;75;21178;-57
2022/05/05 00:49:34;;;;;;;23.10;13.43;;;12.30;90.90;;;;;;1914149;75;21070;-57
2022/05/05 00:52:04;;;;;;;18.32;12.95;;;12.30;90.90;;;;;;1914419;74;21086;-57
2022/05/05 00:54:34;;;;;;;18.37;11.63;;;12.30;90.90;;;;;;1914154;74;21201;-57
2022/05/05 00:57:05;;;;;;;24.70;14.33;;;12.30;90.90;;;;;;1914291;74;21070;-57
2022/05/05 00:59:34;;;;;;;19.32;13.83;;;12.30;91.00;;;;;;1914205;74;21164;-57
2022/05/05 01:02:04;;;;;;;25.25;14.33;;;12.30;91.00;;;;;;1914215;75;21107;-57
2022/05/05 01:04:34;;;;;;;21.45;13.85;;;12.30;91.10;;;;;;1914190;75;21094;-57
2022/05/05 01:07:04;;;;;;;23.10;14.43;;;12.30;91.20;;;;;;1914160;74;21033;-57
2022/05/05 01:09:34;;;;;;;20.32;13.25;;;12.30;91.00;;;;;;1914161;75;21154;-57
2022/05/05 01:12:03;;;;;;;20.40;13.20;;;12.20;91.10;;;;;;1914303;75;21034;-57
2022/05/05 01:14:34;;;;;;;18.48;11.75;;;12.20;91.00;;;;;;1914151;74;21026;-57
2022/05/05 01:17:03;;;;;;;19.62;12.43;;;12.20;91.00;;;;;;1914188;75;21199;-57
2022/05/05 01:19:35;;;;;;;16.27;11.85;;;12.30;91.20;;;;;;1914130;75;21122;-57
2022/05/05 01:22:06;;;;;;;16.15;12.03;;;12.20;91.10;;;;;;1914141;74;21151;-57
2022/05/05 01:30:09;;;;;;;19.95;11.80;;;12.30;91.10;;;;;;1914111;74;21101;-57
2022/05/05 01:32:38;;;;;;;19.12;12.23;;;12.30;91.10;;;;;;1914175;74;21177;-57
2022/05/05 01:35:08;;;;;;;23.15;11.75;;;12.30;91.00;;;;;;1914215;74;21570;-57
2022/05/05 01:37:37;;;;;;;18.15;11.80;;;12.30;91.00;;;;;;1914178;75;21042;-57
2022/05/05 01:40:07;;;;;;;16.93;11.78;;;12.30;91.00;;;;;;1908385;74;21099;-59
2022/05/05 01:42:38;;;;;;;17.52;11.00;;;12.30;91.10;;;;;;1907159;75;21537;-57
2022/05/05 01:45:08;;;;;;;18.48;12.28;;;12.30;91.10;;;;;;1907090;75;21203;-57
2022/05/05 01:47:37;;;;;;;16.15;11.33;;;12.30;91.10;;;;;;1907290;75;21214;-57
2022/05/05 01:50:07;;;;;;;14.80;11.43;;;12.30;91.10;;;;;;1907175;75;21166;-57
2022/05/05 01:52:36;;;;;;;19.42;12.28;;;12.30;91.10;;;;;;1907304;75;21092;-57
2022/05/05 01:55:06;;;;;;;15.83;11.25;;;12.30;91.10;;;;;;1907237;75;21090;-57
2022/05/05 01:57:35;;;;;;;14.45;10.72;;;12.30;91.10;;;;;;1907266;75;21100;-57
2022/05/05 02:00:06;;;;;;;19.02;12.28;;;12.30;91.10;;;;;;1907354;75;21155;-57
2022/05/05 02:02:45;;;;;;;16.30;9.98;;;12.30;91.10;;;;;;1907115;75;21178;-57
2022/05/05 02:05:16;;;;;;;17.92;11.15;;;12.30;91.10;;;;;;1907214;75;21030;-57
2022/05/05 02:07:47;;;;;;;14.87;10.85;;;12.30;91.10;;;;;;1907232;75;21046;-57
2022/05/05 02:10:20;;;;;;;17.35;12.03;;;12.30;91.10;;;;;;1907173;75;21208;-57
2022/05/05 02:12:51;;;;;;;13.53;10.00;;;12.30;91.10;;;;;;1907160;75;21477;-57
2022/05/05 02:15:20;;;;;;;15.45;10.55;;;12.30;91.10;;;;;;1907203;75;21048;-57
2022/05/05 02:17:49;;;;;;;14.47;10.18;;;12.40;91.10;;;;;;1907305;75;21083;-57
2022/05/05 02:20:19;;;;;;;13.48;9.48;;;12.30;91.10;;;;;;1907422;75;21177;-57
2022/05/05 02:22:48;;;;;;;17.45;10.85;;;12.30;91.10;;;;;;1907353;75;21106;-57
2022/05/05 02:25:17;;;;;;;20.00;11.80;;;12.30;91.10;;;;;;1907346;75;21090;-57
2022/05/05 02:27:51;;;;;;;16.30;10.93;;;12.40;91.10;;;;;;1907372;75;21121;-57
2022/05/05 02:30:22;;;;;;;15.23;9.67;;;12.40;91.10;;;;;;1907552;75;21074;-57
2022/05/05 02:32:52;;;;;;;16.55;8.78;;;12.30;91.00;;;;;;1907434;75;21026;-57
2022/05/05 02:35:21;;;;;;;13.43;9.95;;;12.30;91.10;;;;;;1907393;75;21094;-57
2022/05/05 02:40:38;;;;;;;21.52;10.30;;;12.40;91.10;;;;;;1912884;73;21069;-57
2022/05/05 02:43:07;;;;;;;13.62;9.20;;;12.40;91.10;;;;;;1914254;74;21086;-57
2022/05/05 02:45:36;;;;;;;14.83;9.78;;;12.40;91.00;;;;;;1914298;74;21092;-57
2022/05/05 02:48:06;;;;;;;13.43;8.98;;;12.40;91.10;;;;;;1914305;74;21092;-57
2022/05/05 02:50:35;;;;;;;20.37;10.15;;;12.40;91.10;;;;;;1914228;75;21030;-57
2022/05/05 02:54:47;;;;;;;14.68;9.55;;;12.40;91.10;;;;;;1914211;74;21026;-57
2022/05/05 02:55:35;;;;;;;13.28;8.90;;;12.40;91.10;;;;;;1909950;75;21046;-57
2022/05/05 02:58:05;;;;;;;13.65;8.95;;;12.30;91.10;;;;;;1914218;74;21096;-57
2022/05/05 03:00:34;;;;;;;12.73;8.88;;;12.30;91.00;;;;;;1914169;75;21066;-57
2022/05/05 03:03:04;;;;;;;15.58;9.98;;;12.30;91.00;;;;;;1914243;74;21082;-57
2022/05/05 03:05:34;;;;;;;15.03;9.18;;;12.30;91.00;;;;;;1914223;75;21026;-57
2022/05/05 03:08:03;;;;;;;16.73;10.00;;;12.30;91.00;;;;;;1914295;74;21143;-57
2022/05/05 03:10:33;;;;;;;11.25;9.00;;;12.30;91.00;;;;;;1914187;75;21222;-57
2022/05/05 03:13:02;;;;;;;15.65;8.93;;;12.30;91.00;;;;;;1914206;75;21058;-57
2022/05/05 03:15:32;;;;;;;18.75;9.50;;;12.30;90.90;;;;;;1914205;75;21088;-57
2022/05/05 03:18:01;;;;;;;14.20;8.93;;;12.30;91.00;;;;;;1914320;75;21090;-57
2022/05/05 03:20:30;;;;;;;14.25;8.75;;;12.30;90.90;;;;;;1914097;74;21038;-57
2022/05/05 03:22:59;;;;;;;11.55;7.92;;;12.30;90.90;;;;;;1914138;75;21463;-57
2022/05/05 03:25:28;;;;;;;17.25;9.10;;;12.30;90.90;;;;;;1914124;74;21193;-57
2022/05/05 03:27:58;;;;;;;11.88;8.58;;;12.30;90.90;;;;;;1914182;74;21058;-57
2022/05/05 03:30:28;;;;;;;10.70;8.38;;;12.40;90.90;;;;;;1914157;74;21073;-57
2022/05/05 03:32:57;;;;;;;11.95;7.95;;;12.30;90.80;;;;;;1914111;74;21034;-57
2022/05/05 03:35:27;;;;;;;11.83;8.85;;;12.30;90.90;;;;;;1914185;75;21030;-57
2022/05/05 03:37:56;;;;;;;13.48;8.50;;;12.40;90.80;;;;;;1914343;75;21002;-57
2022/05/05 03:40:26;;;;;;;11.33;8.53;;;12.40;90.80;;;;;;1915682;74;21108;-57
2022/05/05 03:42:55;;;;;;;15.35;8.98;;;12.40;90.80;;;;;;1918058;75;21029;-57
2022/05/05 03:45:24;;;;;;;11.85;8.58;;;12.40;90.70;;;;;;1917930;75;21036;-57
2022/05/05 03:47:54;;;;;;;14.18;8.88;;;12.40;90.70;;;;;;1917982;75;21029;-57
2022/05/05 03:50:23;;;;;;;11.73;8.53;;;12.30;90.60;;;;;;1917933;75;21083;-57
2022/05/05 03:52:52;;;;;;;12.80;8.65;;;12.40;90.60;;;;;;1918126;75;21063;-57
2022/05/05 03:55:21;;;;;;;15.13;8.25;;;12.40;90.70;;;;;;1918160;74;21029;-57
2022/05/05 03:57:50;;;;;;;17.77;9.25;;;12.40;90.60;;;;;;1917970;75;21075;-58
2022/05/05 04:00:21;;;;;;;15.00;8.98;;;12.40;90.50;;;;;;1917941;75;21424;-57
2022/05/05 04:05:38;;;;;;;13.53;8.95;;;12.40;90.50;;;;;;1917935;74;21123;-57
2022/05/05 04:08:08;;;;;;;12.43;8.55;;;12.40;90.30;;;;;;1917986;75;21020;-57
2022/05/05 04:10:37;;;;;;;12.80;9.23;;;12.40;90.30;;;;;;1917919;75;21087;-57
2022/05/05 04:13:06;;;;;;;15.13;8.55;;;12.40;90.20;;;;;;1918075;74;21549;-57
2022/05/05 04:15:36;;;;;;;14.13;7.90;;;12.40;90.20;;;;;;1917977;75;21005;-57
2022/05/05 04:18:06;;;;;;;16.45;8.83;;;12.40;90.20;;;;;;1917960;75;21025;-57
2022/05/05 04:20:35;;;;;;;13.68;8.43;;;12.40;90.20;;;;;;1918065;75;21021;-57
2022/05/05 04:23:04;;;;;;;12.98;7.87;;;12.50;90.10;;;;;;1917804;75;21028;-57
2022/05/05 04:25:36;;;;;;;16.90;11.75;;;12.50;89.90;;;;;;1917932;75;21037;-57
2022/05/05 04:28:06;;;;;;;16.93;9.40;;;12.50;89.90;;;;;;1917914;74;21041;-57
2022/05/05 04:30:36;;;;;;;11.48;8.03;;;12.50;89.80;;;;;;1918086;75;21029;-57
2022/05/05 04:33:07;;;;;;;10.23;8.15;;;12.60;89.80;;;;;;1917987;74;21508;-57
2022/05/05 04:35:37;;;;;;;16.87;9.00;;;12.60;89.60;;;;;;1917953;74;21029;-57
2022/05/05 04:38:07;;;;;;;11.95;8.30;;;12.60;89.60;;;;;;1917924;75;21103;-57
2022/05/05 04:40:36;;;;;;;13.45;8.80;;;12.60;89.40;;;;;;1917929;74;21065;-57
2022/05/05 04:43:06;;;;;;;15.32;9.33;;;12.60;89.50;;;;;;1918022;74;21037;-58
2022/05/05 04:45:35;;;;;;;12.65;8.85;;;12.70;89.50;;;;;;1918021;75;21025;-58
2022/05/05 04:48:04;;;;;;;14.53;9.30;;;12.70;89.40;;;;;;1917938;74;21103;-58
2022/05/05 04:50:34;;;;;;;14.50;9.50;;;12.80;89.40;;;;;;1917953;75;21025;-58
2022/05/05 04:53:03;;;;;;;15.32;11.73;;;12.70;89.30;;;;;;1917933;75;21072;-58
2022/05/05 04:55:32;;;;;;;12.93;10.13;;;12.80;89.30;;;;;;1917995;75;21118;-58
2022/05/05 04:58:02;;;;;;;11.95;8.60;;;12.90;89.20;;;;;;1918009;75;21025;-58
2022/05/05 05:00:31;;;;;;;12.35;8.15;;;12.90;89.20;;;;;;1917898;74;21073;-58
2022/05/05 05:03:01;;;;;;;11.85;8.75;;;12.90;89.30;;;;;;1917934;75;21025;-59
2022/05/05 05:05:30;;;;;;;14.18;8.15;;;12.90;89.10;;;;;;1917998;75;21549;-58
2022/05/05 05:07:59;;;;;;;11.03;8.40;;;13.00;89.00;;;;;;1918043;75;21024;-58
2022/05/05 05:10:28;;;;;;;13.98;8.15;;;13.00;89.60;;;;;;1917942;75;21029;-58
2022/05/05 05:12:58;;;;;;;12.07;7.67;;;13.00;89.00;;;;;;1917892;75;21037;-58
2022/05/05 05:15:28;;;;;;;15.05;8.63;;;13.10;89.00;;;;;;1918203;74;21029;-59
2022/05/05 05:17:57;;;;;;;13.45;8.80;;;13.10;88.70;;;;;;1918011;75;21472;-58
2022/05/05 05:20:26;;;;;;;16.37;9.00;;;13.10;88.80;;;;;;1918093;75;21098;-59
2022/05/05 05:22:55;;;;;;;15.08;8.88;;;13.10;88.90;;;;;;1917949;75;21029;-59
2022/05/05 05:25:25;;;;;;;36.25;14.13;;;13.20;88.80;;;;;;1917897;75;21036;-58
2022/05/05 05:27:54;;;;;;;22.75;10.68;;;13.20;88.80;;;;;;1917947;75;21029;-59
2022/05/05 05:30:24;;;;;;;18.30;9.95;;;13.30;88.90;;;;;;1917887;75;21028;-59
2022/05/05 05:32:53;;;;;;;15.38;9.25;;;13.30;89.00;;;;;;1917902;75;21142;-59
2022/05/05 05:35:23;;;;;;;19.07;9.00;;;13.30;88.70;;;;;;1917937;75;21084;-59
2022/05/05 05:37:52;;;;;;;8.58;5.97;;;13.30;88.80;;;;;;1917875;75;21130;-59
2022/05/05 05:40:21;;;;;;;7.70;4.85;;;13.40;88.90;;;;;;1917825;75;21005;-59
2022/05/05 05:42:50;;;;;;;10.43;6.70;;;13.40;88.60;;;;;;1920251;74;21032;-59
2022/05/05 05:45:19;;;;;;;9.35;5.55;;;13.40;88.80;;;;;;1920746;75;21048;-59
2022/05/05 05:47:49;;;;;;;9.23;5.53;;;13.40;88.70;;;;;;1920744;75;21002;-59
2022/05/05 05:50:18;;;;;;;12.98;7.90;;;13.40;88.70;;;;;;1920791;75;21029;-59
2022/05/05 05:52:47;;;;;;;10.85;6.00;;;13.40;88.80;;;;;;1920817;75;21001;-59
2022/05/05 05:55:17;;;;;;;8.30;6.25;;;13.40;88.70;;;;;;1920897;74;21091;-59
2022/05/05 05:57:47;;;;;;;10.38;6.10;;;13.40;88.70;;;;;;1920934;75;21049;-59
2022/05/05 06:00:17;;;;;;;18.52;6.37;;;13.40;88.80;;;;;;1921006;73;21009;-59
2022/05/05 06:05:33;;;;;;;13.13;7.17;;;13.50;89.00;;;;;;1920826;75;21041;-59
2022/05/05 06:08:03;;;;;;;8.50;5.80;;;13.50;89.10;;;;;;1920978;73;21091;-59
2022/05/05 06:10:33;;;;;;;16.77;6.87;;;13.60;89.10;;;;;;1920977;75;21028;-59
2022/05/05 06:13:03;;;;;;;8.93;6.28;;;13.50;89.00;;;;;;1920978;75;21114;-59
2022/05/05 06:15:32;;;;;;;8.85;6.15;;;13.60;89.00;;;;;;1920864;74;21021;-59
2022/05/05 06:18:01;;;;;;;10.70;7.37;;;13.60;89.00;;;;;;1920837;74;21017;-59
2022/05/05 06:20:32;;;;;;;10.60;6.17;;;13.60;88.90;;;;;;1920926;74;21017;-59
2022/05/05 06:23:02;;;;;;;14.68;6.95;;;13.60;89.10;;;;;;1920965;75;21520;-59
2022/05/05 06:25:31;;;;;;;11.60;6.97;;;13.60;89.00;;;;;;1920878;73;21134;-59
2022/05/05 06:28:00;;;;;;;9.38;6.45;;;13.60;89.10;;;;;;1920815;75;21004;-59
2022/05/05 06:30:29;;;;;;;12.00;7.25;;;13.70;89.00;;;;;;1920940;75;21021;-59
2022/05/05 06:32:59;;;;;;;13.88;6.70;;;13.70;89.00;;;;;;1920927;75;21005;-59
2022/05/05 06:35:28;;;;;;;26.10;10.82;;;13.70;89.10;;;;;;1921014;75;21021;-59
2022/05/05 06:37:58;;;;;;;13.35;7.58;;;13.70;89.20;;;;;;1920950;75;21017;-59
2022/05/05 06:40:27;;;;;;;12.73;7.62;;;13.70;89.00;;;;;;1920976;75;21024;-59
2022/05/05 06:42:57;;;;;;;14.00;7.95;;;13.80;89.10;;;;;;1916469;74;21066;-59
2022/05/05 06:45:26;;;;;;;10.25;6.75;;;13.80;89.00;;;;;;1914128;75;21030;-58
2022/05/05 06:47:58;;;;;;;18.00;7.53;;;13.80;89.10;;;;;;1914272;75;21038;-59
2022/05/05 06:50:26;;;;;;;40.08;12.55;;;13.80;88.90;;;;;;1914099;74;21046;-59
2022/05/05 06:52:59;;;;;;;10.15;6.45;;;13.80;89.00;;;;;;1914179;74;21092;-59
2022/05/05 06:55:26;;;;;;;10.63;6.55;;;13.80;89.00;;;;;;1914055;74;21002;-59
2022/05/05 06:57:56;;;;;;;12.95;6.25;;;13.80;88.90;;;;;;1914351;74;21069;-59
2022/05/05 07:01:51;;;;;;;11.10;7.12;;;13.80;88.80;;;;;;1914349;75;21116;-59
2022/05/05 07:02:56;;;;;;;13.83;7.05;;;13.80;88.80;;;;;;1909826;74;21041;-59
2022/05/05 07:05:27;;;;;;;11.93;7.92;;;13.90;88.90;;;;;;1914342;74;21003;-58
2022/05/05 07:07:56;;;;;;;11.60;7.25;;;13.90;88.90;;;;;;1914263;75;21096;-59
2022/05/05 07:13:14;;;;;;;12.90;7.25;;;13.90;88.90;;;;;;1914294;74;21050;-58
2022/05/05 07:15:43;;;;;;;13.55;7.67;;;13.90;88.90;;;;;;1914302;74;21058;-59
2022/05/05 07:18:13;;;;;;;9.45;7.55;;;14.00;88.80;;;;;;1914267;75;21112;-58
2022/05/05 07:20:42;;;;;;;10.93;7.58;;;14.00;88.70;;;;;;1914358;75;21095;-59
2022/05/05 07:23:14;;;;;;;13.45;7.60;;;14.00;88.80;;;;;;1914134;75;21022;-59
2022/05/05 07:25:43;;;;;;;14.47;7.75;;;14.00;88.80;;;;;;1914186;75;20994;-59
2022/05/05 07:28:15;;;;;;;13.43;8.03;;;14.00;88.70;;;;;;1914120;74;21026;-59
2022/05/05 07:30:44;;;;;;;12.33;7.60;;;14.10;88.80;;;;;;1914309;74;21461;-59
2022/05/05 07:33:13;;;;;;;12.58;7.83;;;14.10;89.00;;;;;;1914256;75;21038;-59
2022/05/05 07:35:44;;;;;;;17.60;9.83;;;14.10;88.80;;;;;;1914043;74;21484;-59
2022/05/05 07:38:13;;;;;;;13.95;8.98;;;14.10;88.80;;;;;;1914025;75;21076;-58
2022/05/05 07:40:42;;;;;;;12.55;8.03;;;14.10;89.00;;;;;;1914120;74;21022;-59
2022/05/05 07:43:12;;;;;;;12.95;8.73;;;14.10;89.60;;;;;;1910707;73;21046;-59
2022/05/05 07:45:42;;;;;;;10.30;7.90;;;14.10;89.80;;;;;;1907312;75;21002;-59
2022/05/05 07:48:11;;;;;;;14.38;9.08;;;14.10;89.40;;;;;;1907379;75;21116;-59
2022/05/05 07:50:41;;;;;;;12.93;8.63;;;14.10;89.70;;;;;;1907334;75;21030;-59
2022/05/05 07:53:10;;;;;;;13.40;8.43;;;14.10;89.70;;;;;;1907221;75;21006;-59
2022/05/05 07:55:40;;;;;;;14.70;9.30;;;14.10;89.80;;;;;;1907208;75;21079;-59
2022/05/05 07:58:09;;;;;;;11.57;9.50;;;14.10;90.00;;;;;;1907309;75;21003;-59
2022/05/05 08:00:38;;;;;;;12.40;9.75;;;14.10;89.80;;;;;;1907277;75;21085;-59
2022/05/05 08:03:08;;;;;;;17.60;11.22;;;14.10;89.80;;;;;;1907245;75;21524;-59
2022/05/05 08:05:37;;;;;;;13.22;9.55;;;14.00;90.00;;;;;;1907209;75;21051;-59
2022/05/05 08:08:07;;;;;;;14.60;9.65;;;14.00;90.40;;;;;;1907187;75;21251;-60
2022/05/05 08:10:36;;;;;;;11.15;6.87;;;14.00;90.10;;;;;;1905936;75;21108;-63
2022/05/05 08:13:06;;;;;;;46.08;16.75;;;13.90;90.40;;;;;;1906436;75;21089;-61
2022/05/05 08:15:35;;;;;;;33.60;17.73;;;14.00;90.50;;;;;;1906593;75;21148;-60
2022/05/05 08:18:05;;;;;;;21.97;16.93;;;14.00;90.50;;;;;;1906342;75;21006;-64
2022/05/05 08:20:34;;;;;;;23.92;18.05;;;14.00;90.40;;;;;;1906722;75;21073;-61
2022/05/05 08:23:04;;;;;;;21.10;12.88;;;14.10;90.60;;;;;;1906553;75;21121;-68
2022/05/05 08:28:29;;;;;;;17.92;10.63;;;14.10;90.40;;;;;;1906511;75;21117;-63
2022/05/05 08:31:00;;;;;;;17.35;12.93;;;14.20;90.40;;;;;;1906387;75;21050;-59
2022/05/05 08:33:29;;;;;;;14.45;9.23;;;14.30;90.40;;;;;;1906418;75;21137;-59
2022/05/05 08:36:00;;;;;;;16.37;10.38;;;14.40;90.50;;;;;;1906745;75;21038;-62
2022/05/05 08:38:29;;;;;;;17.92;10.85;;;14.40;90.30;;;;;;1906547;75;21026;-56
2022/05/05 08:40:59;;;;;;;17.20;10.38;;;14.40;90.40;;;;;;1906334;75;21026;-58
2022/05/05 08:43:28;;;;;;;20.25;11.70;;;14.50;90.20;;;;;;1908758;74;21038;-57
2022/05/05 08:45:59;;;;;;;18.60;10.85;;;14.50;90.20;;;;;;1913471;74;21065;-58
2022/05/05 08:48:30;;;;;;;14.63;10.82;;;14.50;90.20;;;;;;1913307;75;21072;-58
2022/05/05 08:51:01;;;;;;;15.70;9.48;;;14.50;90.30;;;;;;1913516;75;21026;-61
2022/05/05 08:53:35;;;;;;;15.18;10.30;;;14.60;90.20;;;;;;1913308;75;21151;-58
2022/05/05 08:56:05;;;;;;;13.90;10.72;;;14.60;90.20;;;;;;1913338;74;21018;-58
2022/05/05 08:58:34;;;;;;;16.62;11.57;;;14.60;90.10;;;;;;1913608;75;21025;-58
2022/05/05 09:01:04;;;;;;;16.50;11.22;;;14.60;90.00;;;;;;1913493;75;21022;-61
2022/05/05 09:03:33;;;;;;;16.23;11.15;;;14.60;90.00;;;;;;1913359;75;21006;-63
2022/05/05 09:06:04;;;;;;;16.48;11.10;;;14.60;90.00;;;;;;1913494;75;21092;-61
2022/05/05 09:08:35;;;;;;;19.42;12.03;;;14.60;90.00;;;;;;1913464;75;21080;-59
2022/05/05 09:11:06;;;;;;;13.80;11.35;;;14.60;90.00;;;;;;1913337;75;21025;-57
2022/05/05 09:13:37;;;;;;;15.32;10.90;;;14.60;89.90;;;;;;1913453;75;21135;-59
2022/05/05 09:16:07;;;;;;;15.50;11.00;;;14.60;89.90;;;;;;1913449;75;21065;-60
2022/05/05 09:18:36;;;;;;;15.95;11.03;;;14.60;90.00;;;;;;1913631;75;21006;-62
2022/05/05 09:21:07;;;;;;;16.55;10.78;;;14.60;90.00;;;;;;1913381;74;21144;-60
2022/05/05 09:26:28;;;;;;;16.00;10.25;;;14.60;90.00;;;;;;1913677;74;21101;-60
2022/05/05 09:28:58;;;;;;;15.10;10.82;;;14.50;90.00;;;;;;1913565;75;21097;-55
2022/05/05 09:31:27;;;;;;;15.80;10.68;;;14.40;89.80;;;;;;1913468;75;21025;-58
2022/05/05 09:33:57;;;;;;;20.15;11.53;;;14.40;90.00;;;;;;1913573;74;21077;-59
2022/05/05 09:36:29;;;;;;;19.12;10.60;;;14.40;90.10;;;;;;1913611;74;21155;-60
2022/05/05 09:39:04;;;;;;;16.20;10.78;;;14.30;90.10;;;;;;1913501;75;21024;-59
2022/05/05 09:41:34;;;;;;;15.25;10.88;;;14.30;90.10;;;;;;1913913;73;21109;-60
2022/05/05 09:44:21;;;;;;;16.25;11.10;;;14.30;90.20;;;;;;1913480;75;21124;-61
2022/05/05 09:46:50;;;;;;;16.62;10.50;;;14.30;90.20;;;;;;1913506;74;21162;-58
2022/05/05 09:49:20;;;;;;;11.78;9.08;;;14.30;90.30;;;;;;1913506;75;21073;-58
2022/05/05 09:57:41;;;;;;;12.70;8.90;;;14.30;89.70;;;;;;1913487;75;21050;-58
2022/05/05 10:00:44;;;;;;;12.15;9.05;;;14.30;89.70;;;;;;1913596;75;21065;-56
2022/05/05 10:05:51;;;;;;;14.38;9.98;;;14.30;89.50;;;;;;1913580;75;21037;-58
2022/05/05 10:08:40;;;;;;;12.35;8.90;;;14.30;89.80;;;;;;1912612;75;21109;-58
2022/05/05 10:11:10;;;;;;;15.08;10.98;;;14.30;90.00;;;;;;1913399;75;21054;-58
2022/05/05 10:13:40;;;;;;;44.45;39.48;;;14.30;89.90;;;;;;1913482;75;21022;-57
2022/05/05 10:16:10;;;;;;;18.07;10.80;;;14.30;90.00;;;;;;1913341;75;21054;-56
2022/05/05 10:18:39;;;;;;;14.98;11.22;;;14.20;90.10;;;;;;1913511;75;21084;-57
2022/05/05 10:21:11;;;;;;;17.87;12.15;;;14.20;90.20;;;;;;1913451;75;21553;-58
2022/05/05 10:23:49;;;;;;;19.87;11.68;;;14.20;90.10;;;;;;1913306;75;21207;-58
2022/05/05 10:26:24;;;;;;;19.70;11.80;;;14.20;90.40;;;;;;1913581;75;21082;-56
2022/05/05 10:28:53;;;;;;;17.27;10.10;;;14.20;90.50;;;;;;1913471;75;21157;-56
2022/05/05 10:31:42;;;;;;;12.30;9.60;;;14.10;90.70;;;;;;1913291;75;21217;-56
2022/05/05 10:34:19;;;;;;;16.70;10.85;;;14.00;90.50;;;;;;1913458;75;21113;-57
2022/05/05 10:37:06;;;;;;;16.10;11.95;;;14.00;90.60;;;;;;1913375;75;21145;-59
2022/05/05 10:40:06;;;;;;;22.07;15.05;;;13.90;90.60;;;;;;1912445;75;21608;-57
2022/05/05 10:42:42;;;;;;;40.03;32.55;;;13.90;90.70;;;;;;1913396;75;21101;-58
2022/05/05 10:45:14;;;;;;;18.12;14.90;;;13.90;90.90;;;;;;1913335;75;21213;-57
2022/05/05 10:47:58;;;;;;;23.52;16.12;;;13.90;91.00;;;;;;1913581;75;21054;-60
2022/05/05 10:50:53;;;;;;;23.02;15.28;;;13.90;90.80;;;;;;1912780;74;21390;-61
2022/05/05 10:53:32;;;;;;;20.48;13.80;;;13.90;90.80;;;;;;1913473;75;21145;-58
2022/05/05 10:56:04;;;;;;;18.85;13.70;;;13.90;91.00;;;;;;1903741;75;21288;-58
2022/05/05 10:58:58;;;;;;;19.98;13.65;;;13.90;91.00;;;;;;1913111;75;21138;-59
2022/05/05 11:01:30;;;;;;;16.67;11.33;;;13.80;91.00;;;;;;1913396;75;21201;-58
2022/05/05 11:04:20;;;;;;;17.48;12.25;;;13.80;91.50;;;;;;1913525;75;21661;-57
2022/05/05 11:06:51;;;;;;;18.23;11.93;;;13.80;91.50;;;;;;1913399;75;21104;-58
2022/05/05 11:09:34;;;;;;;18.87;13.38;;;13.80;91.80;;;;;;1909559;74;21515;-58
2022/05/05 11:12:24;;;;;;;23.22;13.80;;;13.80;91.50;;;;;;1913517;75;21217;-58
2022/05/05 11:23:45;;;;;;;19.12;11.30;;;13.80;92.00;;;;;;1913506;75;21170;-57
2022/05/05 11:26:18;;;;;;;12.82;9.90;;;13.80;92.10;;;;;;1912815;75;21228;-58
2022/05/05 11:28:48;;;;;;;13.58;7.95;;;13.80;92.10;;;;;;1913368;75;21158;-58
2022/05/05 11:31:24;;;;;;;13.72;9.60;;;13.80;92.30;;;;;;1913609;75;21086;-57
2022/05/05 11:33:58;;;;;;;13.32;9.98;;;13.80;92.10;;;;;;1913575;74;21164;-57
2022/05/05 11:36:29;;;;;;;14.43;10.45;;;13.80;92.50;;;;;;1913474;75;21145;-57
2022/05/05 11:38:59;;;;;;;15.30;9.98;;;13.80;92.40;;;;;;1913441;74;21110;-57
2022/05/05 13:19:40;;;;;;;11.05;7.58;;;13.00;93.40;;;;;;1958352;73;26433;-59
2022/05/05 13:22:10;;;;;;;11.65;8.20;;;13.00;93.50;;;;;;1917575;74;21283;-59
2022/05/05 13:24:39;;;;;;;8.20;6.50;;;13.00;93.50;;;;;;1917494;75;21199;-60
2022/05/05 13:27:09;;;;;;;10.58;7.92;;;13.00;93.50;;;;;;1917513;75;21082;-61
2022/05/05 13:29:38;;;;;;;10.80;8.50;;;13.00;93.40;;;;;;1917696;75;21154;-61
2022/05/05 13:32:08;;;;;;;14.25;8.18;;;13.00;93.40;;;;;;1917608;75;21261;-59
2022/05/05 13:34:37;;;;;;;17.48;10.25;;;13.10;93.30;;;;;;1917657;75;21193;-60
2022/05/05 13:37:07;;;;;;;8.23;6.37;;;13.10;93.30;;;;;;1917625;75;21243;-60
2022/05/05 13:39:36;;;;;;;11.43;8.10;;;13.10;93.40;;;;;;1917495;75;21261;-58
2022/05/05 13:42:06;;;;;;;9.53;6.45;;;13.10;93.50;;;;;;1917584;75;21267;-59
2022/05/05 13:44:35;;;;;;;12.93;9.15;;;13.10;93.40;;;;;;1881254;76;21729;-59
2022/05/05 13:47:05;;;;;;;9.25;6.17;;;13.10;93.40;;;;;;1865174;77;21157;-61
2022/05/05 13:49:34;;;;;;;9.78;6.78;;;13.10;93.30;;;;;;1865252;77;21096;-60
2022/05/05 13:52:03;;;;;;;12.05;7.35;;;13.10;93.20;;;;;;1865230;77;21137;-59
2022/05/05 13:54:33;;;;;;;15.58;7.03;;;13.10;93.00;;;;;;1865119;77;21279;-59
2022/05/05 13:57:02;;;;;;;13.45;6.80;;;13.20;93.10;;;;;;1865154;77;21648;-59
2022/05/05 13:59:32;;;;;;;13.83;7.70;;;13.20;92.90;;;;;;1865248;77;21277;-60
2022/05/05 14:02:01;;;;;;;7.40;6.15;;;13.20;92.80;;;;;;1865298;77;21136;-61
2022/05/05 14:04:31;;;;;;;10.85;7.65;;;13.10;92.70;;;;;;1865274;77;21297;-62
2022/05/05 14:07:05;;;;;;;6.70;5.42;;;13.10;92.80;;;;;;1865312;77;21148;-63
2022/05/05 14:12:18;;;;;;;13.22;7.47;;;13.10;92.80;;;;;;1865962;77;21291;-60
2022/05/05 14:14:48;;;;;;;9.05;6.37;;;13.10;92.80;;;;;;1865953;77;21352;-60
2022/05/05 14:17:18;;;;;;;9.20;6.78;;;13.10;92.90;;;;;;1865865;77;21157;-60
2022/05/05 14:19:48;;;;;;;15.55;7.85;;;13.10;93.00;;;;;;1863510;77;21357;-60
2022/05/05 14:22:17;;;;;;;7.70;6.17;;;13.00;92.90;;;;;;1928387;74;21154;-60
2022/05/05 14:24:47;;;;;;;6.08;5.15;;;13.10;92.80;;;;;;1881835;76;21005;-60
2022/05/05 14:27:16;;;;;;;10.48;6.10;;;13.00;92.90;;;;;;1928307;73;21138;-60
2022/05/05 14:29:48;;;;;;;8.18;5.87;;;13.00;92.90;;;;;;1928010;74;21104;-60
2022/05/05 14:32:17;;;;;;;7.40;5.03;;;13.00;92.70;;;;;;1881197;76;21147;-60
2022/05/05 14:34:47;;;;;;;10.23;5.40;;;12.90;92.60;;;;;;1927688;74;21141;-60
2022/05/05 14:37:36;;;;;;;7.28;5.65;;;12.90;92.60;;;;;;1927785;74;21141;-60
2022/05/05 14:40:06;;;;;;;11.38;7.08;;;12.90;92.60;;;;;;1900347;75;21169;-60
2022/05/05 14:42:35;;;;;;;10.15;6.30;;;12.90;92.70;;;;;;1941008;74;21081;-60
2022/05/05 14:45:05;;;;;;;10.10;6.60;;;12.90;92.80;;;;;;1900410;75;21198;-61
2022/05/05 14:47:35;;;;;;;11.00;6.83;;;12.90;92.70;;;;;;1900364;75;21089;-61
2022/05/05 14:50:04;;;;;;;12.03;7.37;;;12.90;92.70;;;;;;1900351;75;21150;-60
2022/05/05 14:52:33;;;;;;;9.45;7.20;;;12.90;92.70;;;;;;1900320;75;21146;-60
2022/05/05 14:55:02;;;;;;;10.88;7.92;;;12.90;92.80;;;;;;1900300;75;21269;-60
2022/05/05 14:57:32;;;;;;;9.55;7.75;;;12.90;92.80;;;;;;1900308;75;21105;-60
2022/05/05 15:00:01;;;;;;;10.68;7.50;;;12.90;92.70;;;;;;1900423;75;21407;-60
2022/05/05 15:02:31;;;;;;;8.88;6.40;;;13.00;92.80;;;;;;1900268;75;21226;-60
2022/05/05 15:05:00;;;;;;;10.50;7.70;;;13.00;92.80;;;;;;1900464;75;21132;-60
2022/05/05 15:07:30;;;;;;;11.65;8.45;;;12.90;92.80;;;;;;1900568;75;21141;-60
2022/05/05 15:10:00;;;;;;;12.98;8.75;;;13.00;92.70;;;;;;1900421;75;21188;-60
2022/05/05 15:12:29;;;;;;;12.80;8.08;;;13.00;92.70;;;;;;1900363;75;21081;-60
2022/05/05 15:14:58;;;;;;;14.63;9.85;;;13.00;92.70;;;;;;1900352;75;21271;-60